Time;durP1;ratioP1;P1;durP2;ratioP2;P2;SDS_P1;SDS_P2;PMS_P1;PMS_P2;Temp;Humidity;BMP_temperature;BMP_pressure;BME280_temperature;BME280_humidity;BME280_pressure;Samples;Min_cycle;Max_cycle;Signal;HPM_P1;HPM_P2
2023/06/12 00:00:16;;;;;;;14.80;6.18;;;;;;;20.79;64.20;100555.84;4993636;28;20402;-77
2023/06/12 00:02:41;;;;;;;8.05;5.60;;;;;;;20.83;64.10;100562.38;4993374;28;20385;-77
2023/06/12 00:05:08;;;;;;;11.97;5.70;;;;;;;20.78;64.20;100560.41;4993172;28;20897;-77
2023/06/12 00:07:35;;;;;;;10.02;5.93;;;;;;;20.77;64.34;100556.06;4993265;28;20381;-76
2023/06/12 00:10:01;;;;;;;9.83;5.80;;;;;;;20.90;63.85;100560.34;4992788;28;20424;-77
2023/06/12 00:12:27;;;;;;;8.63;5.57;;;;;;;21.13;63.08;100564.78;4992974;28;20378;-76
2023/06/12 00:14:52;;;;;;;9.93;5.32;;;;;;;21.28;62.35;100575.00;4993175;28;20929;-77
2023/06/12 00:17:18;;;;;;;10.23;5.50;;;;;;;21.21;62.54;100571.66;4993307;28;20385;-77
2023/06/12 00:19:43;;;;;;;8.48;5.10;;;;;;;21.08;62.90;100574.66;4976154;28;20460;-77
2023/06/12 00:22:08;;;;;;;9.53;5.10;;;;;;;20.88;63.59;100577.81;4993060;28;20385;-76
2023/06/12 00:24:34;;;;;;;7.50;4.93;;;;;;;20.84;63.84;100577.50;4992836;28;20381;-76
2023/06/12 00:26:59;;;;;;;10.40;4.60;;;;;;;20.78;63.81;100583.84;4993760;28;20507;-77
2023/06/12 00:29:25;;;;;;;10.00;4.77;;;;;;;20.65;64.20;100579.56;4993416;28;20374;-77
2023/06/12 00:31:50;;;;;;;8.10;4.70;;;;;;;20.64;64.30;100582.50;4993159;28;20381;-78
2023/06/12 00:34:16;;;;;;;8.63;4.63;;;;;;;20.58;64.41;100589.63;4992873;28;20378;-77
2023/06/12 00:36:42;;;;;;;9.33;4.47;;;;;;;20.47;64.88;100585.91;4993056;28;20401;-77
2023/06/12 00:39:08;;;;;;;8.17;4.97;;;;;;;20.59;64.45;100591.25;4992813;28;20457;-77
2023/06/12 00:41:33;;;;;;;11.77;4.65;;;;;;;20.57;64.22;100588.00;4992892;28;20390;-77
2023/06/12 00:43:59;;;;;;;9.60;4.47;;;;;;;20.23;65.21;100587.84;4995201;28;20845;-77
2023/06/12 00:46:24;;;;;;;11.23;4.45;;;;;;;20.10;65.97;100591.63;4994718;28;20746;-77
2023/06/12 00:48:50;;;;;;;8.40;4.70;;;;;;;20.18;65.72;100595.81;4992378;28;20390;-77
2023/06/12 00:51:17;;;;;;;14.43;5.10;;;;;;;20.21;65.52;100589.97;4992271;28;20386;-77
2023/06/12 00:53:42;;;;;;;9.23;4.82;;;;;;;20.22;65.48;100597.81;4974330;28;20397;-77
2023/06/12 00:56:08;;;;;;;8.60;4.53;;;;;;;20.01;65.86;100595.72;4996316;28;20399;-77
2023/06/12 00:58:33;;;;;;;10.73;4.90;;;;;;;19.99;65.88;100597.84;5011719;28;20471;-77
2023/06/12 01:00:59;;;;;;;9.52;5.40;;;;;;;20.04;65.71;100593.38;5011775;28;20376;-77
2023/06/12 01:03:24;;;;;;;10.40;5.40;;;;;;;20.15;65.11;100588.19;5012137;28;20399;-77
2023/06/12 01:05:51;;;;;;;11.82;5.55;;;;;;;20.27;64.63;100590.88;5012524;28;20404;-77
2023/06/12 01:09:00;;;;;;;12.48;5.57;;;;;;;20.43;64.07;100603.59;5011201;28;20469;-77
2023/06/12 01:11:26;;;;;;;10.37;6.00;;;;;;;20.32;64.17;100602.56;5011412;28;20411;-77
2023/06/12 01:13:52;;;;;;;11.27;6.15;;;;;;;20.28;64.41;100606.00;5011536;28;20443;-77
2023/06/12 01:16:18;;;;;;;8.68;5.93;;;;;;;20.41;63.94;100611.09;5011397;28;20457;-77
2023/06/12 01:18:43;;;;;;;9.73;5.93;;;;;;;20.42;63.83;100618.13;4994329;28;20376;-77
2023/06/12 01:21:17;;;;;;;11.13;6.60;;;;;;;20.45;63.54;100620.31;5011237;28;20472;-77
2023/06/12 01:24:00;;;;;;;12.88;6.20;;;;;;;20.48;63.44;100610.97;5011321;28;20392;-77
2023/06/12 01:26:33;;;;;;;13.77;6.00;;;;;;;20.57;63.19;100618.44;5011799;28;20406;-78
2023/06/12 01:29:26;;;;;;;12.20;5.40;;;;;;;20.53;63.33;100621.84;5011324;28;20454;-77
2023/06/12 01:32:04;;;;;;;11.57;6.10;;;;;;;20.52;63.29;100615.63;5010138;28;20876;-77
2023/06/12 01:34:38;;;;;;;10.95;6.00;;;;;;;20.54;63.26;100616.19;4993913;28;20387;-77
2023/06/12 01:37:22;;;;;;;10.52;5.57;;;;;;;20.47;63.39;100614.72;4993439;28;20730;-76
2023/06/12 01:39:59;;;;;;;9.90;6.00;;;;;;;20.42;63.48;100610.06;4977538;28;20394;-79
2023/06/12 01:42:27;;;;;;;11.95;5.85;;;;;;;20.38;63.68;100616.94;4993424;28;20452;-77
2023/06/12 01:44:52;;;;;;;9.02;5.32;;;;;;;20.41;63.46;100611.09;5002112;28;20478;-79
2023/06/12 01:47:19;;;;;;;9.05;5.40;;;;;;;20.42;63.47;100608.19;5013274;28;20395;-77
2023/06/12 01:49:45;;;;;;;9.63;5.18;;;;;;;20.51;63.18;100616.69;5011754;28;20383;-75
2023/06/12 01:52:10;;;;;;;11.88;5.53;;;;;;;20.52;63.26;100620.19;5012175;28;20445;-76
2023/06/12 01:54:35;;;;;;;10.40;5.37;;;;;;;20.48;63.34;100621.75;5013354;28;20376;-76
2023/06/12 01:57:02;;;;;;;12.75;5.82;;;;;;;20.41;63.54;100622.69;5011567;28;20970;-76
2023/06/12 01:59:27;;;;;;;10.25;5.63;;;;;;;20.52;63.33;100614.81;4994317;28;20388;-77
2023/06/12 02:01:52;;;;;;;9.83;5.83;;;;;;;20.54;63.29;100615.41;4994504;28;20392;-78
2023/06/12 02:04:19;;;;;;;9.40;5.33;;;;;;;20.58;63.19;100612.00;5012607;28;20461;-78
2023/06/12 02:06:45;;;;;;;10.25;5.82;;;;;;;20.62;63.09;100609.69;5012668;28;20463;-78
2023/06/12 02:09:11;;;;;;;10.07;5.07;;;;;;;20.54;63.24;100612.69;5013438;28;20466;-78
2023/06/12 02:11:36;;;;;;;10.93;5.37;;;;;;;20.43;63.84;100622.44;5013408;28;20458;-79
2023/06/12 02:14:02;;;;;;;10.00;5.53;;;;;;;20.40;63.85;100621.06;5013464;28;20562;-78
2023/06/12 02:16:27;;;;;;;16.47;5.67;;;;;;;20.42;63.90;100618.94;5013654;28;20488;-78
2023/06/12 02:18:53;;;;;;;9.23;5.68;;;;;;;20.44;64.02;100627.59;5011926;28;20396;-78
2023/06/12 02:21:19;;;;;;;10.53;5.20;;;;;;;20.50;63.87;100630.41;5012507;28;20444;-78
2023/06/12 02:23:44;;;;;;;10.02;5.25;;;;;;;20.49;63.86;100632.28;5012153;28;20491;-78
2023/06/12 02:26:10;;;;;;;8.57;5.20;;;;;;;20.44;64.03;100627.59;5013251;28;20407;-77
2023/06/12 02:28:35;;;;;;;7.93;5.18;;;;;;;20.41;64.20;100633.44;4995020;28;20414;-78
2023/06/12 02:31:03;;;;;;;10.97;4.97;;;;;;;20.48;64.14;100641.41;5012858;28;20873;-77
2023/06/12 02:33:30;;;;;;;8.73;5.10;;;;;;;20.47;64.09;100630.88;5010913;28;20876;-77
2023/06/12 02:35:55;;;;;;;11.20;5.57;;;;;;;20.52;63.93;100642.56;4999587;28;20495;-78
2023/06/12 02:38:21;;;;;;;8.40;5.05;;;;;;;20.53;64.02;100635.31;5000665;28;20486;-78
2023/06/12 02:40:46;;;;;;;7.30;4.90;;;;;;;20.53;64.01;100638.00;5000101;28;20400;-76
2023/06/12 02:43:12;;;;;;;10.07;5.43;;;;;;;20.51;64.21;100634.72;5007527;28;20893;-79
2023/06/12 02:45:37;;;;;;;9.23;4.60;;;;;;;20.40;64.24;100625.59;5010774;28;20412;-79
2023/06/12 02:48:03;;;;;;;8.87;5.00;;;;;;;20.49;64.20;100628.75;5010079;28;20414;-78
2023/06/12 02:50:28;;;;;;;7.47;4.97;;;;;;;20.51;64.10;100632.84;4990748;28;20910;-78
2023/06/12 02:52:53;;;;;;;7.93;5.30;;;;;;;20.49;64.21;100628.75;5009600;28;20809;-78
2023/06/12 02:55:19;;;;;;;8.03;5.03;;;;;;;20.37;64.69;100626.09;5011245;28;20474;-78
2023/06/12 02:57:45;;;;;;;7.65;4.90;;;;;;;20.24;65.33;100630.69;4998298;28;20421;-78
2023/06/12 03:00:13;;;;;;;11.40;5.70;;;;;;;20.22;65.54;100626.56;4993262;28;20384;-78
2023/06/12 03:02:42;;;;;;;12.23;5.22;;;;;;;20.20;65.62;100626.84;5001643;28;20415;-79
2023/06/12 03:05:15;;;;;;;9.88;5.53;;;;;;;20.32;65.49;100637.56;5004581;28;20419;-80
2023/06/12 03:07:42;;;;;;;15.40;5.70;;;;;;;20.32;65.34;100634.88;5014295;28;20479;-80
2023/06/12 03:10:08;;;;;;;8.25;5.35;;;;;;;20.38;65.29;100642.03;4996888;28;20380;-79
2023/06/12 03:12:34;;;;;;;9.88;5.22;;;;;;;20.58;64.60;100644.31;5001131;28;20384;-80
2023/06/12 03:15:00;;;;;;;13.23;5.60;;;;;;;20.67;64.62;100646.66;5001478;28;20477;-80
2023/06/12 03:17:26;;;;;;;12.77;5.43;;;;;;;20.72;64.35;100650.25;5007477;28;20834;-80
2023/06/12 03:19:51;;;;;;;12.82;5.65;;;;;;;20.71;64.11;100643.25;4838217;28;2441855;-80
2023/06/12 03:22:17;;;;;;;9.53;5.33;;;;;;;20.70;64.21;100643.50;4957322;28;20458;-79
2023/06/12 03:24:43;;;;;;;10.97;5.93;;;;;;;20.74;64.13;100656.25;4989694;28;20428;-79
2023/06/12 03:27:10;;;;;;;13.00;5.77;;;;;;;20.80;63.95;100654.47;4983985;28;20389;-78
2023/06/12 03:29:35;;;;;;;9.53;5.50;;;;;;;20.84;63.79;100657.50;4996090;28;20394;-78
2023/06/12 03:32:01;;;;;;;9.90;5.60;;;;;;;20.84;63.82;100661.00;4988432;28;20778;-78
2023/06/12 03:34:27;;;;;;;9.27;5.17;;;;;;;20.70;64.04;100657.75;4996581;28;20867;-78
2023/06/12 03:36:52;;;;;;;10.18;5.47;;;;;;;20.66;64.39;100661.19;5015500;28;20376;-77
2023/06/12 03:39:18;;;;;;;14.67;5.70;;;;;;;20.56;64.71;100657.22;5008429;28;20389;-78
2023/06/12 03:41:52;;;;;;;8.95;5.22;;;;;;;20.39;65.11;100658.97;4995830;28;20386;-77
2023/06/12 03:44:18;;;;;;;10.68;5.50;;;;;;;20.38;65.44;100668.94;4995850;28;20481;-77
2023/06/12 03:46:43;;;;;;;12.82;5.88;;;;;;;20.51;65.04;100669.72;4995370;28;20686;-78
2023/06/12 03:49:09;;;;;;;10.70;6.27;;;;;;;20.68;64.42;100672.53;4995908;28;20389;-77
2023/06/12 03:51:35;;;;;;;11.13;5.77;;;;;;;20.63;64.43;100667.84;5002305;28;20390;-77
2023/06/12 03:54:01;;;;;;;13.60;5.78;;;;;;;20.63;64.40;100670.56;5010916;28;20479;-78
2023/06/12 03:56:27;;;;;;;12.68;5.50;;;;;;;20.66;64.53;100669.28;4997750;28;20412;-77
2023/06/12 03:58:52;;;;;;;13.93;5.63;;;;;;;20.65;64.70;100671.13;5014745;28;20398;-77
2023/06/12 04:01:18;;;;;;;11.10;5.70;;;;;;;20.69;64.52;100684.94;5012794;28;20395;-77
2023/06/12 04:03:44;;;;;;;10.05;5.97;;;;;;;20.68;64.51;100676.03;5013619;28;20442;-77
2023/06/12 04:06:10;;;;;;;10.35;5.60;;;;;;;20.71;64.53;100682.84;5012941;28;20908;-78
2023/06/12 04:08:37;;;;;;;11.57;5.85;;;;;;;20.69;64.57;100683.09;5013854;28;20457;-77
2023/06/12 04:11:03;;;;;;;13.02;5.63;;;;;;;20.72;64.43;100679.09;5013408;28;20395;-78
2023/06/12 04:13:29;;;;;;;7.90;5.63;;;;;;;20.72;64.58;100674.50;5013657;28;20395;-78
2023/06/12 04:15:57;;;;;;;11.35;6.25;;;;;;;20.80;64.49;100676.84;5013926;28;20397;-77
2023/06/12 04:18:23;;;;;;;16.07;5.77;;;;;;;20.81;64.40;100673.09;5013950;28;20399;-77
2023/06/12 04:20:49;;;;;;;12.50;6.30;;;;;;;20.80;64.66;100676.84;5013876;28;20754;-78
2023/06/12 04:23:16;;;;;;;11.30;5.90;;;;;;;20.80;64.49;100670.63;5013291;28;20388;-80
2023/06/12 04:25:43;;;;;;;10.02;6.18;;;;;;;20.85;64.45;100665.34;5012914;28;20407;-78
2023/06/12 04:28:13;;;;;;;9.88;6.28;;;;;;;20.95;64.03;100673.63;5013546;28;20856;-80
2023/06/12 04:30:44;;;;;;;11.50;6.32;;;;;;;21.03;64.03;100672.44;5012825;28;20396;-79
2023/06/12 04:33:10;;;;;;;12.55;6.40;;;;;;;20.91;64.13;100668.97;5013136;28;20730;-80
2023/06/12 04:35:36;;;;;;;11.73;6.30;;;;;;;20.85;64.21;100668.06;5013661;28;20402;-80
2023/06/12 04:38:01;;;;;;;15.77;6.80;;;;;;;20.86;64.51;100671.56;5001463;28;20424;-82
2023/06/12 04:40:27;;;;;;;11.70;6.70;;;;;;;20.81;64.88;100672.25;5023595;28;20459;-82
2023/06/12 04:42:56;;;;;;;10.13;6.40;;;;;;;20.78;64.84;100678.16;5018388;28;20428;-83
2023/06/12 04:45:23;;;;;;;11.25;6.43;;;;;;;20.90;64.52;100672.69;4999237;28;20488;-84
2023/06/12 04:47:50;;;;;;;10.23;6.43;;;;;;;20.89;64.60;100671.09;5017228;28;20404;-83
2023/06/12 04:50:15;;;;;;;12.25;7.18;;;;;;;20.89;64.94;100671.91;5017494;28;20559;-83
2023/06/12 04:52:41;;;;;;;15.53;7.03;;;;;;;20.98;64.91;100666.94;5015875;28;20849;-83
2023/06/12 04:55:08;;;;;;;18.08;7.55;;;;;;;20.99;64.84;100679.34;5001369;28;20388;-83
2023/06/12 04:57:36;;;;;;;10.38;7.30;;;;;;;20.79;65.02;100671.69;5012876;28;20427;-83
2023/06/12 05:00:12;;;;;;;13.63;7.35;;;;;;;20.75;65.16;100674.03;5003797;28;20774;-85
2023/06/12 05:02:38;;;;;;;14.27;7.97;;;;;;;20.66;65.41;100672.78;5014026;28;20412;-84
2023/06/12 05:05:04;;;;;;;12.93;7.73;;;;;;;20.68;65.53;100681.44;4997833;28;20447;-82
2023/06/12 05:07:34;;;;;;;9.45;6.95;;;;;;;20.66;65.56;100680.03;4997600;28;20891;-84
2023/06/12 05:10:00;;;;;;;11.35;7.65;;;;;;;20.73;65.40;100678.03;5014679;28;20403;-83
2023/06/12 05:12:25;;;;;;;10.88;7.43;;;;;;;20.61;65.55;100670.78;5017347;28;20384;-85
2023/06/12 05:14:51;;;;;;;12.65;7.07;;;;;;;20.51;65.62;100667.88;5013197;28;20395;-85
2023/06/12 05:17:16;;;;;;;11.30;7.40;;;;;;;20.48;65.93;100676.41;5018185;28;20864;-85
2023/06/12 05:19:43;;;;;;;10.63;6.77;;;;;;;20.46;66.04;100670.44;4998083;28;20384;-84
2023/06/12 05:22:09;;;;;;;12.65;7.63;;;;;;;20.48;65.75;100668.34;5013467;28;20936;-84
2023/06/12 05:24:34;;;;;;;9.77;6.82;;;;;;;20.46;65.58;100669.63;4996298;28;20391;-84
2023/06/12 05:27:00;;;;;;;9.27;6.67;;;;;;;20.35;65.87;100669.41;5014369;28;20384;-85
2023/06/12 05:29:26;;;;;;;12.35;7.25;;;;;;;20.37;66.12;100672.69;5013495;28;20380;-85
2023/06/12 05:31:52;;;;;;;12.25;7.20;;;;;;;20.32;66.06;100675.25;5015456;28;20744;-85
2023/06/12 05:34:18;;;;;;;10.48;6.50;;;;;;;20.31;66.32;100678.19;5015032;28;20402;-85
2023/06/12 05:36:43;;;;;;;8.20;6.57;;;;;;;20.21;66.32;100671.50;4997365;28;20911;-85
2023/06/12 05:39:09;;;;;;;10.82;6.40;;;;;;;20.27;66.22;100669.75;5016499;28;20383;-85
2023/06/12 05:41:34;;;;;;;10.20;6.67;;;;;;;20.24;66.42;100676.44;4998004;28;20376;-85
2023/06/12 05:44:01;;;;;;;10.18;6.32;;;;;;;20.35;66.08;100682.88;5014769;28;20380;-86
2023/06/12 05:46:27;;;;;;;9.95;6.88;;;;;;;20.40;66.03;100679.44;4998646;28;20885;-85
2023/06/12 05:48:55;;;;;;;9.03;6.57;;;;;;;20.47;65.86;100685.53;5017339;28;20376;-84
2023/06/12 05:51:20;;;;;;;10.98;6.75;;;;;;;20.43;66.04;100684.38;4998977;28;20372;-84
2023/06/12 05:53:47;;;;;;;8.00;6.90;;;;;;;20.43;66.24;100689.75;5015906;28;20384;-84
2023/06/12 05:56:13;;;;;;;12.30;6.97;;;;;;;20.38;66.34;100690.47;5015350;28;20967;-81
2023/06/12 05:58:42;;;;;;;8.70;6.63;;;;;;;20.41;66.36;100698.06;4997180;28;20380;-81
2023/06/12 06:01:11;;;;;;;8.02;6.30;;;;;;;20.42;66.40;100696.22;4997348;28;20496;-80
2023/06/12 06:03:45;;;;;;;11.90;6.85;;;;;;;20.44;66.45;100688.72;5013642;28;20396;-83
2023/06/12 06:06:12;;;;;;;9.02;6.90;;;;;;;20.42;66.51;100696.22;4996801;28;20404;-77
2023/06/12 06:08:38;;;;;;;11.50;6.88;;;;;;;20.37;66.68;100691.53;4983372;28;20886;-78
2023/06/12 06:11:04;;;;;;;9.43;6.77;;;;;;;20.31;66.87;100694.31;5002462;28;20472;-79
2023/06/12 06:13:30;;;;;;;9.32;6.93;;;;;;;20.28;66.94;100697.50;5013284;28;20380;-77
2023/06/12 06:15:55;;;;;;;9.48;7.45;;;;;;;20.25;66.84;100717.63;5012984;28;20707;-81
2023/06/12 06:18:20;;;;;;;10.10;6.67;;;;;;;20.24;66.86;100716.00;5013304;28;20387;-77
2023/06/12 06:20:46;;;;;;;10.57;6.67;;;;;;;20.30;66.85;100712.34;5012785;28;20395;-79
2023/06/12 06:23:11;;;;;;;7.80;6.78;;;;;;;20.38;66.47;100714.72;5013541;28;20410;-77
2023/06/12 06:25:38;;;;;;;13.80;6.50;;;;;;;20.40;66.23;100717.97;5014525;28;20423;-78
2023/06/12 06:28:04;;;;;;;9.02;6.65;;;;;;;20.42;66.17;100713.19;4995262;28;20376;-77
2023/06/12 06:30:30;;;;;;;10.00;6.30;;;;;;;20.53;65.91;100716.91;5028694;28;20757;-77
2023/06/12 06:32:55;;;;;;;9.37;6.77;;;;;;;20.55;65.90;100717.50;5013420;28;20388;-79
2023/06/12 06:35:21;;;;;;;9.73;6.88;;;;;;;20.59;65.95;100723.22;5019361;28;20368;-80
2023/06/12 06:37:47;;;;;;;9.23;6.57;;;;;;;20.49;65.99;100714.91;5013352;28;20877;-79
2023/06/12 06:40:14;;;;;;;8.70;6.60;;;;;;;20.54;65.92;100726.63;5012729;28;20737;-80
2023/06/12 06:42:40;;;;;;;10.90;7.72;;;;;;;20.70;65.72;100725.09;4995865;28;20395;-79
2023/06/12 06:45:07;;;;;;;8.82;6.93;;;;;;;20.63;65.64;100724.41;5012442;28;20411;-78
2023/06/12 06:47:33;;;;;;;10.48;6.97;;;;;;;20.69;65.43;100725.34;4995411;28;20402;-77
2023/06/12 06:49:59;;;;;;;7.57;6.75;;;;;;;20.80;65.32;100727.22;5011625;28;20861;-78
2023/06/12 06:52:25;;;;;;;8.85;6.70;;;;;;;20.80;65.66;100727.22;5015817;28;20411;-77
2023/06/12 06:54:50;;;;;;;10.80;7.30;;;;;;;20.84;65.70;100727.56;5017378;28;20412;-77
2023/06/12 06:57:16;;;;;;;7.38;6.45;;;;;;;20.80;65.63;100725.34;5016133;28;20430;-78
2023/06/12 06:59:41;;;;;;;7.67;6.50;;;;;;;20.83;65.54;100729.41;5013813;28;20380;-78
2023/06/12 07:02:07;;;;;;;7.20;6.50;;;;;;;20.79;65.53;100733.66;5016591;28;20387;-78
2023/06/12 07:04:32;;;;;;;9.40;6.30;;;;;;;20.86;65.58;100728.13;5016696;28;20833;-76
2023/06/12 07:06:58;;;;;;;8.47;6.97;;;;;;;20.90;65.32;100735.47;5016567;28;20375;-80
2023/06/12 07:09:24;;;;;;;9.27;6.88;;;;;;;20.79;65.72;100737.16;5016161;28;20396;-77
2023/06/12 07:11:50;;;;;;;8.60;6.90;;;;;;;20.71;65.99;100737.53;5015892;28;20691;-78
2023/06/12 07:14:16;;;;;;;8.27;6.65;;;;;;;20.67;65.65;100738.22;5015950;28;20383;-78
2023/06/12 07:16:41;;;;;;;10.15;7.72;;;;;;;20.86;65.55;100742.41;5012743;28;20376;-78
2023/06/12 07:19:10;;;;;;;7.97;7.17;;;;;;;20.89;65.56;100741.13;5015546;28;20391;-79
2023/06/12 07:21:36;;;;;;;9.63;7.15;;;;;;;21.02;65.36;100735.47;5015032;28;20388;-80
2023/06/12 07:24:03;;;;;;;9.68;7.65;;;;;;;20.98;65.63;100734.31;4997419;28;20386;-80
2023/06/12 07:26:28;;;;;;;8.68;7.60;;;;;;;21.08;65.28;100739.09;5014790;28;20403;-81
2023/06/12 07:28:54;;;;;;;10.23;7.57;;;;;;;21.00;65.38;100751.06;5015861;28;20376;-81
2023/06/12 07:31:20;;;;;;;10.73;7.80;;;;;;;20.94;65.69;100741.22;5016039;28;20383;-81
2023/06/12 07:33:46;;;;;;;8.48;7.57;;;;;;;20.99;65.68;100754.81;4998297;28;20392;-84
2023/06/12 07:36:12;;;;;;;10.48;7.93;;;;;;;21.06;65.52;100747.41;5015172;28;20376;-82
2023/06/12 07:38:39;;;;;;;9.27;7.95;;;;;;;21.03;65.68;100738.97;5013538;28;20376;-80
2023/06/12 07:41:04;;;;;;;9.73;8.48;;;;;;;21.06;65.91;100739.31;5014625;28;20490;-80
2023/06/12 07:43:34;;;;;;;9.50;8.48;;;;;;;21.07;65.65;100746.34;5012225;28;20471;-81
2023/06/12 07:46:03;;;;;;;10.32;8.55;;;;;;;21.08;65.72;100745.28;5013869;28;20411;-83
2023/06/12 07:48:28;;;;;;;9.77;8.85;;;;;;;21.28;65.76;100746.75;5013996;28;20373;-83
2023/06/12 07:50:54;;;;;;;9.93;8.93;;;;;;;21.06;65.64;100733.13;5015796;28;20393;-81
2023/06/12 07:53:20;;;;;;;10.38;8.93;;;;;;;21.24;65.56;100734.81;5013948;28;20452;-80
2023/06/12 07:55:46;;;;;;;9.87;8.87;;;;;;;21.35;65.00;100737.44;5014442;28;20527;-78
2023/06/12 07:58:12;;;;;;;11.20;9.57;;;;;;;21.23;65.03;100739.41;4996416;28;20530;-79
2023/06/12 08:00:37;;;;;;;10.75;9.75;;;;;;;21.17;64.83;100745.72;5013670;28;20392;-78
2023/06/12 08:03:03;;;;;;;11.53;10.00;;;;;;;21.17;64.99;100741.16;5014564;28;20399;-78
2023/06/12 08:05:30;;;;;;;12.60;10.53;;;;;;;21.25;65.08;100736.44;5015627;28;20407;-79
2023/06/12 08:07:57;;;;;;;14.13;10.25;;;;;;;21.34;64.80;100733.13;5014310;28;20391;-77
2023/06/12 08:10:23;;;;;;;11.90;10.70;;;;;;;21.51;64.99;100743.97;5014465;28;20426;-78
2023/06/12 08:12:49;;;;;;;11.80;10.57;;;;;;;21.53;64.75;100741.03;5015022;28;20376;-76
2023/06/12 08:15:15;;;;;;;13.50;10.40;;;;;;;21.56;64.52;100744.06;5013914;28;20715;-76
2023/06/12 08:17:43;;;;;;;12.73;10.10;;;;;;;21.50;64.44;100746.91;5014210;28;20372;-79
2023/06/12 08:20:10;;;;;;;14.40;10.90;;;;;;;21.36;64.21;100752.56;5015340;28;20857;-79
2023/06/12 08:22:36;;;;;;;14.68;10.40;;;;;;;21.49;64.23;100758.78;4997511;28;20380;-78
2023/06/12 08:25:03;;;;;;;11.80;10.15;;;;;;;21.52;64.04;100752.91;5014874;28;20745;-78
2023/06/12 08:27:29;;;;;;;11.65;10.15;;;;;;;21.51;63.95;100753.94;5015807;28;20386;-78
2023/06/12 08:29:55;;;;;;;10.73;9.63;;;;;;;21.52;64.44;100756.41;5022315;28;20474;-78
2023/06/12 08:32:21;;;;;;;10.07;9.00;;;;;;;21.32;64.79;100754.13;5016772;28;20403;-79
2023/06/12 08:34:47;;;;;;;12.93;8.65;;;;;;;21.37;65.01;100773.09;5015286;28;20383;-77
2023/06/12 08:37:13;;;;;;;9.47;8.53;;;;;;;21.21;64.86;100768.44;5014401;28;20380;-80
2023/06/12 08:39:39;;;;;;;10.65;8.73;;;;;;;20.93;65.15;100761.97;5015093;28;20417;-78
2023/06/12 08:42:07;;;;;;;11.30;9.00;;;;;;;21.02;65.34;100773.19;5014711;28;20383;-77
2023/06/12 08:44:35;;;;;;;13.18;8.60;;;;;;;20.94;65.06;100758.22;5014658;28;20463;-78
2023/06/12 08:47:03;;;;;;;11.82;8.35;;;;;;;20.92;64.98;100768.44;5017856;28;20408;-78
2023/06/12 08:49:30;;;;;;;11.98;9.10;;;;;;;20.98;65.15;100762.06;5000239;28;20861;-78
2023/06/12 08:51:56;;;;;;;10.45;8.93;;;;;;;20.86;65.53;100773.94;5013477;28;20384;-78
2023/06/12 08:54:22;;;;;;;10.13;8.98;;;;;;;20.91;65.08;100774.88;4997233;28;20714;-78
2023/06/12 08:56:50;;;;;;;10.57;8.10;;;;;;;21.03;64.94;100776.69;5014235;28;20430;-78
2023/06/12 08:59:16;;;;;;;9.63;8.35;;;;;;;20.92;64.97;100767.59;5014430;28;20391;-77
2023/06/12 09:01:42;;;;;;;11.18;8.20;;;;;;;20.84;65.05;100774.16;5013558;28;20380;-77
2023/06/12 09:04:41;;;;;;;11.25;8.60;;;;;;;20.76;65.17;100761.06;5012753;28;20876;-78
2023/06/12 09:07:07;;;;;;;12.30;9.03;;;;;;;20.75;65.44;100770.22;5014477;28;20403;-78
2023/06/12 09:09:37;;;;;;;11.00;8.60;;;;;;;20.71;65.28;100772.56;5014286;28;20734;-78
2023/06/12 09:12:04;;;;;;;15.65;9.65;;;;;;;20.85;65.07;100766.91;5014751;28;20380;-77
2023/06/12 09:14:34;;;;;;;10.13;9.02;;;;;;;20.93;64.92;100766.53;5014169;28;20380;-79
2023/06/12 09:17:00;;;;;;;15.07;9.50;;;;;;;20.90;64.84;100761.63;5012597;28;20380;-77
2023/06/12 09:19:35;;;;;;;11.73;9.48;;;;;;;20.97;64.79;100771.19;5013192;28;20390;-78
2023/06/12 09:22:01;;;;;;;14.93;9.50;;;;;;;20.95;64.57;100761.72;5012462;28;20396;-77
2023/06/12 09:24:27;;;;;;;10.68;9.32;;;;;;;20.95;64.63;100761.72;4995653;28;20479;-77
2023/06/12 09:26:55;;;;;;;12.67;10.47;;;;;;;21.15;64.42;100766.72;5013350;28;20487;-76
2023/06/12 09:29:32;;;;;;;13.67;9.73;;;;;;;21.31;63.80;100759.75;5012406;28;20387;-79
2023/06/12 09:31:59;;;;;;;11.25;10.05;;;;;;;21.22;63.95;100767.41;5013900;28;20384;-77
2023/06/12 09:34:25;;;;;;;13.17;9.83;;;;;;;21.37;63.65;100758.78;5012671;28;20384;-77
2023/06/12 09:36:51;;;;;;;12.70;9.65;;;;;;;21.34;63.27;100765.47;5010756;28;20765;-76
2023/06/12 09:39:27;;;;;;;11.82;9.70;;;;;;;21.18;63.27;100764.38;4996680;28;20402;-79
2023/06/12 09:41:54;;;;;;;12.43;9.70;;;;;;;21.22;62.86;100764.69;4979829;28;21058;-80
2023/06/12 09:44:25;;;;;;;16.70;9.68;;;;;;;21.21;63.11;100768.44;4993097;28;20406;-78
2023/06/12 09:46:51;;;;;;;13.85;9.80;;;;;;;21.31;63.15;100773.22;4990291;28;20502;-76
2023/06/12 09:49:24;;;;;;;14.13;9.65;;;;;;;21.50;62.56;100768.47;4990522;28;20374;-77
2023/06/12 09:51:51;;;;;;;12.88;9.85;;;;;;;21.39;62.24;100770.13;4991798;28;20389;-78
2023/06/12 09:54:18;;;;;;;15.45;9.50;;;;;;;21.53;62.47;100768.00;4991101;28;20386;-79
2023/06/12 09:56:49;;;;;;;15.73;10.07;;;;;;;21.66;61.92;100774.97;4991849;28;20410;-78
2023/06/12 09:59:19;;;;;;;15.65;9.90;;;;;;;21.71;61.73;100767.78;4990778;28;20394;-77
2023/06/12 10:02:05;;;;;;;11.93;10.03;;;;;;;21.68;61.82;100770.16;4975352;28;20389;-77
2023/06/12 10:05:01;;;;;;;16.17;11.00;;;;;;;21.62;61.63;100771.94;4977240;28;20461;-79
2023/06/12 10:07:37;;;;;;;12.55;9.65;;;;;;;21.87;61.36;100765.38;4992688;28;20421;-79
2023/06/12 10:10:07;;;;;;;12.85;9.50;;;;;;;21.91;61.13;100769.22;4993078;28;20413;-78
2023/06/12 10:12:35;;;;;;;12.82;9.80;;;;;;;22.04;60.65;100763.50;4993480;28;20385;-78
2023/06/12 10:15:05;;;;;;;14.80;10.20;;;;;;;22.28;60.29;100761.47;4976169;28;20858;-78
2023/06/12 10:17:32;;;;;;;11.95;9.25;;;;;;;22.32;59.73;100767.22;4993524;28;20933;-77
2023/06/12 10:19:58;;;;;;;10.20;8.55;;;;;;;22.58;59.48;100760.31;4993297;28;20393;-78
2023/06/12 10:22:24;;;;;;;10.80;9.23;;;;;;;22.63;58.81;100752.25;4994965;28;20388;-79
2023/06/12 10:24:50;;;;;;;10.47;8.90;;;;;;;22.87;58.39;100752.84;5000986;28;20381;-79
2023/06/12 10:27:18;;;;;;;13.77;9.37;;;;;;;22.85;57.86;100741.47;4978959;28;20385;-78
2023/06/12 10:29:44;;;;;;;11.57;8.70;;;;;;;22.96;57.12;100747.00;4996473;28;20385;-76
2023/06/12 10:32:10;;;;;;;14.27;9.07;;;;;;;23.21;57.08;100743.78;4979209;28;20444;-78
2023/06/12 10:34:45;;;;;;;13.02;8.45;;;;;;;23.52;57.03;100741.44;4996978;28;20382;-78
2023/06/12 10:37:23;;;;;;;12.15;8.55;;;;;;;23.66;55.97;100745.38;4997488;28;20392;-78
2023/06/12 10:40:14;;;;;;;11.00;8.15;;;;;;;23.66;55.33;100739.94;4997112;28;20381;-77
2023/06/12 10:42:51;;;;;;;10.30;8.07;;;;;;;23.70;55.08;100740.22;4986822;28;20385;-78
2023/06/12 10:45:17;;;;;;;10.90;8.57;;;;;;;23.92;55.03;100737.47;4998447;28;20921;-77
2023/06/12 10:48:08;;;;;;;12.70;8.67;;;;;;;24.01;54.91;100725.09;4996533;28;20385;-77
2023/06/12 10:50:52;;;;;;;10.23;7.65;;;;;;;24.02;54.93;100734.84;4995641;28;20878;-80
2023/06/12 10:53:23;;;;;;;15.10;8.60;;;;;;;24.07;55.58;100720.53;4996283;28;20382;-76
2023/06/12 10:55:54;;;;;;;11.32;8.20;;;;;;;23.92;54.87;100722.03;4996519;28;20378;-77
2023/06/12 10:58:21;;;;;;;14.23;8.75;;;;;;;23.75;55.58;100721.31;5014840;28;20447;-78
2023/06/12 11:00:49;;;;;;;13.07;7.80;;;;;;;23.70;55.79;100726.69;4999172;28;20396;-77
2023/06/12 11:03:21;;;;;;;13.20;8.00;;;;;;;23.74;55.47;100711.59;5016371;28;20407;-77
2023/06/12 11:05:48;;;;;;;9.93;8.05;;;;;;;23.82;55.28;100708.41;4998386;28;20834;-78
2023/06/12 11:08:15;;;;;;;9.20;7.75;;;;;;;23.78;54.86;100697.25;5015960;28;20887;-77
2023/06/12 11:10:41;;;;;;;12.43;8.10;;;;;;;23.94;54.99;100713.66;5016564;28;20408;-78
2023/06/12 11:13:06;;;;;;;10.48;8.38;;;;;;;23.93;55.14;100698.50;5015609;28;20737;-77
2023/06/12 11:15:46;;;;;;;10.10;7.70;;;;;;;23.84;54.68;100701.69;5014622;28;20392;-76
2023/06/12 11:18:13;;;;;;;11.57;8.02;;;;;;;23.90;54.87;100697.13;5013091;28;20376;-77
2023/06/12 11:20:39;;;;;;;12.32;7.80;;;;;;;23.88;54.87;100693.03;5014937;28;20387;-78